sensor_id;sensor_type;location;lat;lon;timestamp;P1;durP1;ratioP1;P2;durP2;ratioP2
17177;SDS011;8704;52.006;4.374;2023-12-20T00:01:31;18.60;;;4.78;;
17177;SDS011;8704;52.006;4.374;2023-12-20T00:03:59;18.50;;;5.35;;
17177;SDS011;8704;52.006;4.374;2023-12-20T00:06:28;16.38;;;5.63;;
17177;SDS011;8704;52.006;4.374;2023-12-20T00:08:57;15.18;;;4.82;;
17177;SDS011;8704;52.006;4.374;2023-12-20T00:11:25;21.52;;;5.55;;
17177;SDS011;8704;52.006;4.374;2023-12-20T00:13:53;15.85;;;4.85;;
17177;SDS011;8704;52.006;4.374;2023-12-20T00:16:21;17.90;;;5.22;;
17177;SDS011;8704;52.006;4.374;2023-12-20T00:18:50;15.07;;;5.32;;
17177;SDS011;8704;52.006;4.374;2023-12-20T00:21:19;18.73;;;5.72;;
17177;SDS011;8704;52.006;4.374;2023-12-20T00:23:47;20.05;;;5.00;;
17177;SDS011;8704;52.006;4.374;2023-12-20T00:26:15;18.38;;;5.43;;
17177;SDS011;8704;52.006;4.374;2023-12-20T00:28:43;18.90;;;5.38;;
17177;SDS011;8704;52.006;4.374;2023-12-20T00:31:11;15.07;;;4.60;;
17177;SDS011;8704;52.006;4.374;2023-12-20T00:33:39;18.90;;;5.93;;
17177;SDS011;8704;52.006;4.374;2023-12-20T00:36:11;21.60;;;5.72;;
17177;SDS011;8704;52.006;4.374;2023-12-20T00:38:39;23.95;;;5.20;;
17177;SDS011;8704;52.006;4.374;2023-12-20T00:41:08;15.95;;;5.13;;
17177;SDS011;8704;52.006;4.374;2023-12-20T00:43:36;20.10;;;5.35;;
17177;SDS011;8704;52.006;4.374;2023-12-20T00:46:04;15.05;;;4.75;;
17177;SDS011;8704;52.006;4.374;2023-12-20T00:48:32;20.98;;;5.38;;
17177;SDS011;8704;52.006;4.374;2023-12-20T00:51:03;18.63;;;5.55;;
17177;SDS011;8704;52.006;4.374;2023-12-20T00:53:33;13.98;;;4.03;;
17177;SDS011;8704;52.006;4.374;2023-12-20T00:56:01;21.15;;;5.43;;
17177;SDS011;8704;52.006;4.374;2023-12-20T00:58:29;23.73;;;5.70;;
17177;SDS011;8704;52.006;4.374;2023-12-20T01:00:57;19.33;;;5.10;;
17177;SDS011;8704;52.006;4.374;2023-12-20T01:03:26;19.08;;;5.20;;
17177;SDS011;8704;52.006;4.374;2023-12-20T01:05:54;20.30;;;5.53;;
17177;SDS011;8704;52.006;4.374;2023-12-20T01:08:22;18.00;;;5.13;;
17177;SDS011;8704;52.006;4.374;2023-12-20T01:10:52;22.45;;;5.47;;
17177;SDS011;8704;52.006;4.374;2023-12-20T01:13:20;20.67;;;5.03;;
17177;SDS011;8704;52.006;4.374;2023-12-20T01:15:48;20.35;;;5.13;;
17177;SDS011;8704;52.006;4.374;2023-12-20T01:18:16;23.55;;;5.25;;
17177;SDS011;8704;52.006;4.374;2023-12-20T01:20:45;20.05;;;5.38;;
17177;SDS011;8704;52.006;4.374;2023-12-20T01:23:13;20.02;;;5.32;;
17177;SDS011;8704;52.006;4.374;2023-12-20T01:25:41;20.70;;;5.65;;
17177;SDS011;8704;52.006;4.374;2023-12-20T01:28:11;25.30;;;4.90;;
17177;SDS011;8704;52.006;4.374;2023-12-20T01:30:39;16.20;;;4.85;;
17177;SDS011;8704;52.006;4.374;2023-12-20T01:33:07;18.05;;;5.07;;
17177;SDS011;8704;52.006;4.374;2023-12-20T01:35:35;18.27;;;4.65;;
17177;SDS011;8704;52.006;4.374;2023-12-20T01:38:04;18.40;;;4.70;;
17177;SDS011;8704;52.006;4.374;2023-12-20T01:40:32;16.10;;;3.63;;
17177;SDS011;8704;52.006;4.374;2023-12-20T01:43:00;12.98;;;4.50;;
17177;SDS011;8704;52.006;4.374;2023-12-20T01:45:31;20.80;;;5.57;;
17177;SDS011;8704;52.006;4.374;2023-12-20T01:47:59;24.10;;;5.50;;
17177;SDS011;8704;52.006;4.374;2023-12-20T01:50:29;19.90;;;5.55;;
17177;SDS011;8704;52.006;4.374;2023-12-20T01:52:58;23.02;;;5.97;;
17177;SDS011;8704;52.006;4.374;2023-12-20T01:55:29;20.83;;;5.53;;
17177;SDS011;8704;52.006;4.374;2023-12-20T01:58:00;22.33;;;5.32;;
17177;SDS011;8704;52.006;4.374;2023-12-20T02:00:30;26.00;;;5.25;;
17177;SDS011;8704;52.006;4.374;2023-12-20T02:03:00;24.88;;;5.05;;
17177;SDS011;8704;52.006;4.374;2023-12-20T02:05:29;20.60;;;5.03;;
17177;SDS011;8704;52.006;4.374;2023-12-20T02:07:58;22.92;;;5.15;;
17177;SDS011;8704;52.006;4.374;2023-12-20T02:10:27;15.95;;;3.95;;
17177;SDS011;8704;52.006;4.374;2023-12-20T02:12:55;18.17;;;3.63;;
17177;SDS011;8704;52.006;4.374;2023-12-20T02:15:24;18.48;;;5.50;;
17177;SDS011;8704;52.006;4.374;2023-12-20T02:17:53;17.52;;;4.95;;
17177;SDS011;8704;52.006;4.374;2023-12-20T02:20:22;20.80;;;4.95;;
17177;SDS011;8704;52.006;4.374;2023-12-20T02:22:52;17.30;;;4.18;;
17177;SDS011;8704;52.006;4.374;2023-12-20T02:25:20;16.40;;;4.72;;
17177;SDS011;8704;52.006;4.374;2023-12-20T02:27:48;19.85;;;4.53;;
17177;SDS011;8704;52.006;4.374;2023-12-20T02:30:18;21.95;;;5.22;;
17177;SDS011;8704;52.006;4.374;2023-12-20T02:32:47;15.73;;;4.45;;
17177;SDS011;8704;52.006;4.374;2023-12-20T02:35:16;19.58;;;4.45;;
17177;SDS011;8704;52.006;4.374;2023-12-20T02:37:44;21.98;;;5.32;;
17177;SDS011;8704;52.006;4.374;2023-12-20T02:40:14;22.75;;;5.68;;
17177;SDS011;8704;52.006;4.374;2023-12-20T02:42:42;26.05;;;5.40;;
17177;SDS011;8704;52.006;4.374;2023-12-20T02:45:11;22.33;;;5.13;;
17177;SDS011;8704;52.006;4.374;2023-12-20T02:47:41;18.38;;;5.10;;
17177;SDS011;8704;52.006;4.374;2023-12-20T02:50:09;17.65;;;4.68;;
17177;SDS011;8704;52.006;4.374;2023-12-20T02:52:37;20.10;;;5.95;;
17177;SDS011;8704;52.006;4.374;2023-12-20T02:55:06;18.30;;;4.88;;
17177;SDS011;8704;52.006;4.374;2023-12-20T02:57:35;19.42;;;5.07;;
17177;SDS011;8704;52.006;4.374;2023-12-20T03:00:09;24.80;;;5.03;;
17177;SDS011;8704;52.006;4.374;2023-12-20T03:02:38;15.68;;;4.82;;
17177;SDS011;8704;52.006;4.374;2023-12-20T03:05:06;20.80;;;4.80;;
17177;SDS011;8704;52.006;4.374;2023-12-20T03:07:36;20.30;;;5.82;;
17177;SDS011;8704;52.006;4.374;2023-12-20T03:10:04;17.77;;;4.88;;
17177;SDS011;8704;52.006;4.374;2023-12-20T03:12:47;17.23;;;4.38;;
17177;SDS011;8704;52.006;4.374;2023-12-20T03:15:15;25.23;;;5.40;;
17177;SDS011;8704;52.006;4.374;2023-12-20T03:17:44;17.55;;;5.07;;
17177;SDS011;8704;52.006;4.374;2023-12-20T03:20:12;24.17;;;5.18;;
17177;SDS011;8704;52.006;4.374;2023-12-20T03:22:40;19.45;;;3.53;;
17177;SDS011;8704;52.006;4.374;2023-12-20T03:25:08;17.02;;;5.00;;
17177;SDS011;8704;52.006;4.374;2023-12-20T03:27:37;23.85;;;5.18;;
17177;SDS011;8704;52.006;4.374;2023-12-20T03:30:08;22.73;;;5.00;;
17177;SDS011;8704;52.006;4.374;2023-12-20T03:32:36;19.60;;;4.65;;
17177;SDS011;8704;52.006;4.374;2023-12-20T03:35:05;20.10;;;4.18;;
17177;SDS011;8704;52.006;4.374;2023-12-20T03:37:34;19.70;;;4.45;;
17177;SDS011;8704;52.006;4.374;2023-12-20T03:40:02;17.38;;;4.65;;
17177;SDS011;8704;52.006;4.374;2023-12-20T03:42:31;17.95;;;4.13;;
17177;SDS011;8704;52.006;4.374;2023-12-20T03:44:59;23.13;;;5.10;;
17177;SDS011;8704;52.006;4.374;2023-12-20T03:47:29;20.30;;;4.25;;
17177;SDS011;8704;52.006;4.374;2023-12-20T03:49:57;17.30;;;4.75;;
17177;SDS011;8704;52.006;4.374;2023-12-20T03:52:26;18.80;;;4.63;;
17177;SDS011;8704;52.006;4.374;2023-12-20T03:54:54;20.27;;;4.90;;
17177;SDS011;8704;52.006;4.374;2023-12-20T03:57:22;20.27;;;5.15;;
17177;SDS011;8704;52.006;4.374;2023-12-20T03:59:50;17.38;;;4.57;;
17177;SDS011;8704;52.006;4.374;2023-12-20T04:02:19;28.30;;;5.93;;
17177;SDS011;8704;52.006;4.374;2023-12-20T04:04:48;19.23;;;5.53;;
17177;SDS011;8704;52.006;4.374;2023-12-20T04:07:16;18.38;;;5.05;;
17177;SDS011;8704;52.006;4.374;2023-12-20T04:09:45;19.67;;;4.85;;
17177;SDS011;8704;52.006;4.374;2023-12-20T04:12:14;21.50;;;6.13;;
17177;SDS011;8704;52.006;4.374;2023-12-20T04:14:42;21.10;;;5.63;;
17177;SDS011;8704;52.006;4.374;2023-12-20T04:17:11;21.67;;;5.43;;
17177;SDS011;8704;52.006;4.374;2023-12-20T04:19:39;20.05;;;5.65;;
17177;SDS011;8704;52.006;4.374;2023-12-20T04:22:10;26.70;;;6.05;;
17177;SDS011;8704;52.006;4.374;2023-12-20T04:24:38;28.55;;;5.97;;
17177;SDS011;8704;52.006;4.374;2023-12-20T04:27:08;23.17;;;5.30;;
17177;SDS011;8704;52.006;4.374;2023-12-20T04:29:36;22.48;;;5.10;;
17177;SDS011;8704;52.006;4.374;2023-12-20T04:32:05;19.42;;;4.53;;
17177;SDS011;8704;52.006;4.374;2023-12-20T04:34:33;15.35;;;4.35;;
17177;SDS011;8704;52.006;4.374;2023-12-20T04:37:02;20.23;;;4.78;;
17177;SDS011;8704;52.006;4.374;2023-12-20T04:39:31;23.85;;;5.65;;
17177;SDS011;8704;52.006;4.374;2023-12-20T04:42:00;17.60;;;5.60;;
17177;SDS011;8704;52.006;4.374;2023-12-20T04:44:28;16.27;;;4.45;;
17177;SDS011;8704;52.006;4.374;2023-12-20T04:46:56;20.02;;;4.95;;
17177;SDS011;8704;52.006;4.374;2023-12-20T04:49:24;17.88;;;5.25;;
17177;SDS011;8704;52.006;4.374;2023-12-20T04:51:52;24.42;;;4.60;;
17177;SDS011;8704;52.006;4.374;2023-12-20T04:54:21;22.58;;;5.65;;
17177;SDS011;8704;52.006;4.374;2023-12-20T04:56:51;24.70;;;5.60;;
17177;SDS011;8704;52.006;4.374;2023-12-20T04:59:19;15.77;;;4.55;;
17177;SDS011;8704;52.006;4.374;2023-12-20T05:01:48;22.13;;;5.90;;
17177;SDS011;8704;52.006;4.374;2023-12-20T05:04:16;14.35;;;4.05;;
17177;SDS011;8704;52.006;4.374;2023-12-20T05:06:45;23.38;;;5.55;;
17177;SDS011;8704;52.006;4.374;2023-12-20T05:09:13;22.10;;;5.90;;
17177;SDS011;8704;52.006;4.374;2023-12-20T05:11:41;26.35;;;6.57;;
17177;SDS011;8704;52.006;4.374;2023-12-20T05:14:11;18.95;;;5.90;;
17177;SDS011;8704;52.006;4.374;2023-12-20T05:16:39;23.95;;;6.05;;
17177;SDS011;8704;52.006;4.374;2023-12-20T05:19:07;23.75;;;6.72;;
17177;SDS011;8704;52.006;4.374;2023-12-20T05:21:35;21.77;;;6.50;;
17177;SDS011;8704;52.006;4.374;2023-12-20T05:24:04;28.55;;;7.68;;
17177;SDS011;8704;52.006;4.374;2023-12-20T05:26:32;23.27;;;5.70;;
17177;SDS011;8704;52.006;4.374;2023-12-20T05:29:00;23.88;;;5.97;;
17177;SDS011;8704;52.006;4.374;2023-12-20T05:31:30;21.85;;;5.78;;
17177;SDS011;8704;52.006;4.374;2023-12-20T05:33:59;28.17;;;5.90;;
17177;SDS011;8704;52.006;4.374;2023-12-20T05:36:27;22.70;;;6.20;;
17177;SDS011;8704;52.006;4.374;2023-12-20T05:38:55;22.30;;;6.03;;
17177;SDS011;8704;52.006;4.374;2023-12-20T05:41:23;24.30;;;5.90;;
17177;SDS011;8704;52.006;4.374;2023-12-20T05:43:51;21.30;;;6.18;;
17177;SDS011;8704;52.006;4.374;2023-12-20T05:46:20;19.83;;;5.70;;
17177;SDS011;8704;52.006;4.374;2023-12-20T05:48:50;19.38;;;5.60;;
17177;SDS011;8704;52.006;4.374;2023-12-20T05:51:19;22.30;;;6.25;;
17177;SDS011;8704;52.006;4.374;2023-12-20T05:53:47;28.25;;;6.15;;
17177;SDS011;8704;52.006;4.374;2023-12-20T05:56:16;20.60;;;6.03;;
17177;SDS011;8704;52.006;4.374;2023-12-20T05:58:44;20.88;;;6.18;;
17177;SDS011;8704;52.006;4.374;2023-12-20T06:01:12;20.42;;;5.53;;
17177;SDS011;8704;52.006;4.374;2023-12-20T06:03:43;18.70;;;6.55;;
17177;SDS011;8704;52.006;4.374;2023-12-20T06:06:13;26.98;;;5.85;;
17177;SDS011;8704;52.006;4.374;2023-12-20T06:08:42;23.92;;;5.68;;
17177;SDS011;8704;52.006;4.374;2023-12-20T06:11:11;15.88;;;4.82;;
17177;SDS011;8704;52.006;4.374;2023-12-20T06:13:40;22.92;;;5.57;;
17177;SDS011;8704;52.006;4.374;2023-12-20T06:16:08;25.08;;;5.95;;
17177;SDS011;8704;52.006;4.374;2023-12-20T06:18:36;20.92;;;6.18;;
17177;SDS011;8704;52.006;4.374;2023-12-20T06:21:04;26.55;;;5.68;;
17177;SDS011;8704;52.006;4.374;2023-12-20T06:23:35;17.65;;;5.45;;
17177;SDS011;8704;52.006;4.374;2023-12-20T06:26:03;26.05;;;6.00;;
17177;SDS011;8704;52.006;4.374;2023-12-20T06:28:31;25.50;;;6.47;;
17177;SDS011;8704;52.006;4.374;2023-12-20T06:30:59;20.60;;;6.00;;
17177;SDS011;8704;52.006;4.374;2023-12-20T06:33:28;26.10;;;7.75;;
17177;SDS011;8704;52.006;4.374;2023-12-20T06:35:57;25.77;;;6.20;;
17177;SDS011;8704;52.006;4.374;2023-12-20T06:38:25;25.98;;;6.00;;
17177;SDS011;8704;52.006;4.374;2023-12-20T06:40:55;21.75;;;5.93;;
17177;SDS011;8704;52.006;4.374;2023-12-20T06:43:24;24.17;;;6.30;;
17177;SDS011;8704;52.006;4.374;2023-12-20T06:45:56;27.42;;;6.45;;
17177;SDS011;8704;52.006;4.374;2023-12-20T06:48:25;18.67;;;5.93;;
17177;SDS011;8704;52.006;4.374;2023-12-20T06:50:53;18.73;;;6.20;;
17177;SDS011;8704;52.006;4.374;2023-12-20T06:53:21;15.07;;;5.03;;
17177;SDS011;8704;52.006;4.374;2023-12-20T06:55:49;22.27;;;5.93;;
17177;SDS011;8704;52.006;4.374;2023-12-20T06:58:18;21.73;;;5.70;;
17177;SDS011;8704;52.006;4.374;2023-12-20T07:00:47;20.70;;;6.20;;
17177;SDS011;8704;52.006;4.374;2023-12-20T07:03:15;22.30;;;6.95;;
17177;SDS011;8704;52.006;4.374;2023-12-20T07:05:43;25.05;;;7.13;;
17177;SDS011;8704;52.006;4.374;2023-12-20T07:08:12;24.55;;;6.32;;
17177;SDS011;8704;52.006;4.374;2023-12-20T07:10:41;25.08;;;6.70;;
17177;SDS011;8704;52.006;4.374;2023-12-20T07:13:10;22.77;;;6.15;;
17177;SDS011;8704;52.006;4.374;2023-12-20T07:15:41;21.35;;;6.20;;
17177;SDS011;8704;52.006;4.374;2023-12-20T07:18:10;23.42;;;6.50;;
17177;SDS011;8704;52.006;4.374;2023-12-20T07:20:38;23.10;;;6.72;;
17177;SDS011;8704;52.006;4.374;2023-12-20T07:23:06;23.88;;;6.72;;
17177;SDS011;8704;52.006;4.374;2023-12-20T07:25:35;23.70;;;6.50;;
17177;SDS011;8704;52.006;4.374;2023-12-20T07:28:03;27.63;;;6.97;;
17177;SDS011;8704;52.006;4.374;2023-12-20T07:30:32;23.55;;;5.97;;
17177;SDS011;8704;52.006;4.374;2023-12-20T07:33:01;21.75;;;6.70;;
17177;SDS011;8704;52.006;4.374;2023-12-20T07:35:30;25.35;;;6.63;;
17177;SDS011;8704;52.006;4.374;2023-12-20T07:37:58;26.60;;;7.07;;
17177;SDS011;8704;52.006;4.374;2023-12-20T07:40:26;23.17;;;6.82;;
17177;SDS011;8704;52.006;4.374;2023-12-20T07:42:54;29.08;;;6.95;;
17177;SDS011;8704;52.006;4.374;2023-12-20T07:45:22;29.42;;;7.68;;
17177;SDS011;8704;52.006;4.374;2023-12-20T07:47:51;24.88;;;7.65;;
17177;SDS011;8704;52.006;4.374;2023-12-20T07:50:21;19.52;;;6.68;;
17177;SDS011;8704;52.006;4.374;2023-12-20T07:52:49;21.80;;;6.47;;
17177;SDS011;8704;52.006;4.374;2023-12-20T07:55:18;22.33;;;6.05;;
17177;SDS011;8704;52.006;4.374;2023-12-20T07:57:46;17.92;;;6.35;;
17177;SDS011;8704;52.006;4.374;2023-12-20T08:00:15;30.42;;;6.60;;
17177;SDS011;8704;52.006;4.374;2023-12-20T08:02:43;25.27;;;6.32;;
17177;SDS011;8704;52.006;4.374;2023-12-20T08:05:11;18.67;;;5.78;;
17177;SDS011;8704;52.006;4.374;2023-12-20T08:07:43;25.15;;;6.07;;
17177;SDS011;8704;52.006;4.374;2023-12-20T08:10:12;23.02;;;6.53;;
17177;SDS011;8704;52.006;4.374;2023-12-20T08:12:40;24.92;;;6.25;;
17177;SDS011;8704;52.006;4.374;2023-12-20T08:15:09;22.52;;;6.43;;
17177;SDS011;8704;52.006;4.374;2023-12-20T08:17:37;26.63;;;6.78;;
17177;SDS011;8704;52.006;4.374;2023-12-20T08:20:06;25.17;;;7.00;;
17177;SDS011;8704;52.006;4.374;2023-12-20T08:22:34;17.88;;;6.43;;
17177;SDS011;8704;52.006;4.374;2023-12-20T08:25:04;28.85;;;6.95;;
17177;SDS011;8704;52.006;4.374;2023-12-20T08:27:33;23.45;;;6.75;;
17177;SDS011;8704;52.006;4.374;2023-12-20T08:30:02;19.80;;;5.90;;
17177;SDS011;8704;52.006;4.374;2023-12-20T08:32:30;22.88;;;6.80;;
17177;SDS011;8704;52.006;4.374;2023-12-20T08:34:59;20.63;;;6.32;;
17177;SDS011;8704;52.006;4.374;2023-12-20T08:37:29;16.33;;;5.63;;
17177;SDS011;8704;52.006;4.374;2023-12-20T08:39:57;25.13;;;6.53;;
17177;SDS011;8704;52.006;4.374;2023-12-20T08:42:26;26.83;;;7.00;;
17177;SDS011;8704;52.006;4.374;2023-12-20T08:44:57;17.25;;;6.35;;
17177;SDS011;8704;52.006;4.374;2023-12-20T08:47:25;21.70;;;6.20;;
17177;SDS011;8704;52.006;4.374;2023-12-20T08:49:54;25.45;;;5.78;;
17177;SDS011;8704;52.006;4.374;2023-12-20T08:52:23;22.60;;;5.78;;
17177;SDS011;8704;52.006;4.374;2023-12-20T08:54:51;18.80;;;5.75;;
17177;SDS011;8704;52.006;4.374;2023-12-20T08:57:20;22.65;;;5.95;;
17177;SDS011;8704;52.006;4.374;2023-12-20T08:59:51;22.77;;;5.32;;
17177;SDS011;8704;52.006;4.374;2023-12-20T09:02:19;22.92;;;5.47;;
17177;SDS011;8704;52.006;4.374;2023-12-20T09:04:47;23.48;;;5.70;;
17177;SDS011;8704;52.006;4.374;2023-12-20T09:07:21;20.02;;;5.45;;
17177;SDS011;8704;52.006;4.374;2023-12-20T09:09:50;19.15;;;6.13;;
17177;SDS011;8704;52.006;4.374;2023-12-20T09:12:19;26.98;;;5.97;;
17177;SDS011;8704;52.006;4.374;2023-12-20T09:14:48;21.02;;;5.47;;
17177;SDS011;8704;52.006;4.374;2023-12-20T09:17:18;22.33;;;5.85;;
17177;SDS011;8704;52.006;4.374;2023-12-20T09:19:47;21.50;;;4.97;;
17177;SDS011;8704;52.006;4.374;2023-12-20T09:22:15;21.20;;;5.85;;
17177;SDS011;8704;52.006;4.374;2023-12-20T09:24:43;20.17;;;5.13;;
17177;SDS011;8704;52.006;4.374;2023-12-20T09:27:12;17.67;;;5.78;;
17177;SDS011;8704;52.006;4.374;2023-12-20T09:29:40;19.63;;;5.40;;
17177;SDS011;8704;52.006;4.374;2023-12-20T09:32:08;24.40;;;5.40;;
17177;SDS011;8704;52.006;4.374;2023-12-20T09:34:37;22.67;;;5.82;;
17177;SDS011;8704;52.006;4.374;2023-12-20T09:37:06;20.88;;;5.65;;
17177;SDS011;8704;52.006;4.374;2023-12-20T09:39:35;26.08;;;6.47;;
17177;SDS011;8704;52.006;4.374;2023-12-20T09:42:03;25.58;;;6.30;;
17177;SDS011;8704;52.006;4.374;2023-12-20T09:44:33;16.35;;;5.05;;
17177;SDS011;8704;52.006;4.374;2023-12-20T09:47:03;18.48;;;5.60;;
17177;SDS011;8704;52.006;4.374;2023-12-20T09:49:32;22.92;;;5.15;;
17177;SDS011;8704;52.006;4.374;2023-12-20T09:52:02;24.35;;;5.95;;
17177;SDS011;8704;52.006;4.374;2023-12-20T09:54:34;19.02;;;5.65;;
17177;SDS011;8704;52.006;4.374;2023-12-20T09:57:02;20.08;;;5.32;;
17177;SDS011;8704;52.006;4.374;2023-12-20T09:59:32;24.60;;;5.38;;
17177;SDS011;8704;52.006;4.374;2023-12-20T10:02:00;24.17;;;5.22;;
17177;SDS011;8704;52.006;4.374;2023-12-20T10:04:31;23.63;;;5.35;;
17177;SDS011;8704;52.006;4.374;2023-12-20T10:07:03;15.90;;;5.25;;
17177;SDS011;8704;52.006;4.374;2023-12-20T10:09:32;16.88;;;3.50;;
17177;SDS011;8704;52.006;4.374;2023-12-20T10:12:02;19.60;;;5.05;;
17177;SDS011;8704;52.006;4.374;2023-12-20T10:14:32;17.17;;;5.50;;
17177;SDS011;8704;52.006;4.374;2023-12-20T10:17:03;17.10;;;4.30;;
17177;SDS011;8704;52.006;4.374;2023-12-20T10:19:32;23.38;;;4.97;;
17177;SDS011;8704;52.006;4.374;2023-12-20T10:22:03;21.52;;;4.60;;
17177;SDS011;8704;52.006;4.374;2023-12-20T10:24:32;17.58;;;4.80;;
17177;SDS011;8704;52.006;4.374;2023-12-20T10:27:03;17.95;;;4.22;;
17177;SDS011;8704;52.006;4.374;2023-12-20T10:29:32;18.70;;;4.85;;
17177;SDS011;8704;52.006;4.374;2023-12-20T10:32:21;24.85;;;4.97;;
17177;SDS011;8704;52.006;4.374;2023-12-20T10:34:51;22.65;;;5.07;;
17177;SDS011;8704;52.006;4.374;2023-12-20T10:37:22;24.75;;;4.97;;
17177;SDS011;8704;52.006;4.374;2023-12-20T10:39:51;18.98;;;4.70;;
17177;SDS011;8704;52.006;4.374;2023-12-20T10:42:23;18.08;;;5.07;;
17177;SDS011;8704;52.006;4.374;2023-12-20T10:44:53;22.13;;;5.28;;
17177;SDS011;8704;52.006;4.374;2023-12-20T10:47:22;18.95;;;4.50;;
17177;SDS011;8704;52.006;4.374;2023-12-20T10:49:52;19.45;;;4.80;;
17177;SDS011;8704;52.006;4.374;2023-12-20T10:52:24;16.48;;;3.58;;
17177;SDS011;8704;52.006;4.374;2023-12-20T10:54:54;18.65;;;4.93;;
17177;SDS011;8704;52.006;4.374;2023-12-20T10:57:22;26.77;;;5.55;;
17177;SDS011;8704;52.006;4.374;2023-12-20T10:59:54;15.75;;;4.10;;
17177;SDS011;8704;52.006;4.374;2023-12-20T11:02:23;24.35;;;5.20;;
17177;SDS011;8704;52.006;4.374;2023-12-20T11:04:55;22.88;;;5.20;;
17177;SDS011;8704;52.006;4.374;2023-12-20T11:07:33;18.63;;;4.85;;
17177;SDS011;8704;52.006;4.374;2023-12-20T11:10:09;24.88;;;5.05;;
17177;SDS011;8704;52.006;4.374;2023-12-20T11:12:47;17.90;;;4.70;;
17177;SDS011;8704;52.006;4.374;2023-12-20T11:15:19;17.25;;;5.03;;
17177;SDS011;8704;52.006;4.374;2023-12-20T11:17:54;14.63;;;4.18;;
17177;SDS011;8704;52.006;4.374;2023-12-20T11:20:23;18.98;;;4.28;;
17177;SDS011;8704;52.006;4.374;2023-12-20T11:23:03;18.25;;;4.13;;
17177;SDS011;8704;52.006;4.374;2023-12-20T11:25:35;16.75;;;4.35;;
17177;SDS011;8704;52.006;4.374;2023-12-20T11:28:15;17.05;;;3.97;;
17177;SDS011;8704;52.006;4.374;2023-12-20T11:30:47;15.73;;;3.75;;
17177;SDS011;8704;52.006;4.374;2023-12-20T11:33:21;15.85;;;3.70;;
17177;SDS011;8704;52.006;4.374;2023-12-20T11:35:52;19.30;;;5.15;;
17177;SDS011;8704;52.006;4.374;2023-12-20T11:38:25;20.05;;;4.55;;
17177;SDS011;8704;52.006;4.374;2023-12-20T11:40:54;19.25;;;4.63;;
17177;SDS011;8704;52.006;4.374;2023-12-20T11:43:31;15.45;;;4.40;;
17177;SDS011;8704;52.006;4.374;2023-12-20T11:46:02;20.02;;;4.30;;
17177;SDS011;8704;52.006;4.374;2023-12-20T11:48:33;16.77;;;3.83;;
17177;SDS011;8704;52.006;4.374;2023-12-20T11:51:08;19.42;;;4.57;;
17177;SDS011;8704;52.006;4.374;2023-12-20T11:53:38;16.05;;;4.80;;
17177;SDS011;8704;52.006;4.374;2023-12-20T11:56:06;17.23;;;4.85;;
17177;SDS011;8704;52.006;4.374;2023-12-20T11:58:35;25.48;;;5.38;;
17177;SDS011;8704;52.006;4.374;2023-12-20T12:01:04;16.42;;;4.88;;
17177;SDS011;8704;52.006;4.374;2023-12-20T12:03:35;17.88;;;4.70;;
17177;SDS011;8704;52.006;4.374;2023-12-20T12:06:03;17.60;;;4.65;;
17177;SDS011;8704;52.006;4.374;2023-12-20T12:08:32;18.08;;;4.97;;
17177;SDS011;8704;52.006;4.374;2023-12-20T12:11:01;20.27;;;5.22;;
17177;SDS011;8704;52.006;4.374;2023-12-20T12:13:30;16.92;;;4.78;;
17177;SDS011;8704;52.006;4.374;2023-12-20T12:15:58;22.45;;;5.00;;
17177;SDS011;8704;52.006;4.374;2023-12-20T12:18:26;19.35;;;5.22;;
17177;SDS011;8704;52.006;4.374;2023-12-20T12:20:59;13.93;;;4.28;;
17177;SDS011;8704;52.006;4.374;2023-12-20T12:23:35;13.00;;;3.63;;
17177;SDS011;8704;52.006;4.374;2023-12-20T12:26:05;20.65;;;3.70;;
17177;SDS011;8704;52.006;4.374;2023-12-20T12:28:35;22.58;;;4.55;;
17177;SDS011;8704;52.006;4.374;2023-12-20T12:31:03;19.83;;;4.40;;
17177;SDS011;8704;52.006;4.374;2023-12-20T12:33:31;14.35;;;3.25;;
17177;SDS011;8704;52.006;4.374;2023-12-20T12:36:00;16.40;;;3.90;;
17177;SDS011;8704;52.006;4.374;2023-12-20T12:38:30;17.35;;;4.00;;
17177;SDS011;8704;52.006;4.374;2023-12-20T12:40:58;18.98;;;4.15;;
17177;SDS011;8704;52.006;4.374;2023-12-20T12:43:29;18.48;;;4.68;;
17177;SDS011;8704;52.006;4.374;2023-12-20T12:46:00;21.42;;;5.15;;
17177;SDS011;8704;52.006;4.374;2023-12-20T12:48:28;18.17;;;5.10;;
17177;SDS011;8704;52.006;4.374;2023-12-20T12:50:56;20.10;;;4.68;;
17177;SDS011;8704;52.006;4.374;2023-12-20T12:53:26;16.67;;;4.80;;
17177;SDS011;8704;52.006;4.374;2023-12-20T12:55:54;22.75;;;4.70;;
17177;SDS011;8704;52.006;4.374;2023-12-20T12:58:22;21.85;;;5.05;;
17177;SDS011;8704;52.006;4.374;2023-12-20T13:00:53;17.02;;;4.97;;
17177;SDS011;8704;52.006;4.374;2023-12-20T13:03:21;20.20;;;5.00;;
17177;SDS011;8704;52.006;4.374;2023-12-20T13:05:50;19.02;;;5.50;;
17177;SDS011;8704;52.006;4.374;2023-12-20T13:08:18;30.58;;;6.68;;
17177;SDS011;8704;52.006;4.374;2023-12-20T13:10:46;17.67;;;4.90;;
17177;SDS011;8704;52.006;4.374;2023-12-20T13:13:15;21.20;;;5.07;;
17177;SDS011;8704;52.006;4.374;2023-12-20T13:15:43;15.63;;;5.10;;
17177;SDS011;8704;52.006;4.374;2023-12-20T13:18:18;20.50;;;5.05;;
17177;SDS011;8704;52.006;4.374;2023-12-20T13:20:46;20.80;;;5.80;;
17177;SDS011;8704;52.006;4.374;2023-12-20T13:23:15;17.00;;;4.80;;
17177;SDS011;8704;52.006;4.374;2023-12-20T13:25:44;20.83;;;5.00;;
17177;SDS011;8704;52.006;4.374;2023-12-20T13:28:13;17.05;;;4.90;;
17177;SDS011;8704;52.006;4.374;2023-12-20T13:30:41;17.05;;;4.32;;
17177;SDS011;8704;52.006;4.374;2023-12-20T13:33:09;15.32;;;4.68;;
17177;SDS011;8704;52.006;4.374;2023-12-20T13:35:40;23.08;;;4.97;;
17177;SDS011;8704;52.006;4.374;2023-12-20T13:38:08;18.60;;;4.22;;
17177;SDS011;8704;52.006;4.374;2023-12-20T13:40:36;17.90;;;4.70;;
17177;SDS011;8704;52.006;4.374;2023-12-20T13:43:04;22.55;;;5.47;;
17177;SDS011;8704;52.006;4.374;2023-12-20T13:45:33;20.55;;;5.20;;
17177;SDS011;8704;52.006;4.374;2023-12-20T13:48:01;17.38;;;4.72;;
17177;SDS011;8704;52.006;4.374;2023-12-20T13:50:30;21.92;;;4.80;;
17177;SDS011;8704;52.006;4.374;2023-12-20T13:52:59;26.63;;;4.85;;
17177;SDS011;8704;52.006;4.374;2023-12-20T13:57:58;19.73;;;5.30;;
17177;SDS011;8704;52.006;4.374;2023-12-20T14:00:27;20.70;;;5.85;;
17177;SDS011;8704;52.006;4.374;2023-12-20T14:02:55;15.55;;;4.72;;
17177;SDS011;8704;52.006;4.374;2023-12-20T14:05:23;25.23;;;6.05;;
17177;SDS011;8704;52.006;4.374;2023-12-20T14:07:54;23.73;;;6.00;;
17177;SDS011;8704;52.006;4.374;2023-12-20T14:10:25;21.70;;;5.50;;
17177;SDS011;8704;52.006;4.374;2023-12-20T14:12:54;25.33;;;6.03;;
17177;SDS011;8704;52.006;4.374;2023-12-20T14:15:22;19.45;;;5.70;;
17177;SDS011;8704;52.006;4.374;2023-12-20T14:17:52;21.73;;;5.72;;
17177;SDS011;8704;52.006;4.374;2023-12-20T14:20:21;21.33;;;5.30;;
17177;SDS011;8704;52.006;4.374;2023-12-20T14:22:49;21.42;;;5.78;;
17177;SDS011;8704;52.006;4.374;2023-12-20T14:25:17;19.98;;;5.90;;
17177;SDS011;8704;52.006;4.374;2023-12-20T14:27:47;17.08;;;6.15;;
17177;SDS011;8704;52.006;4.374;2023-12-20T14:30:15;15.77;;;5.80;;
17177;SDS011;8704;52.006;4.374;2023-12-20T14:32:43;19.65;;;5.63;;
17177;SDS011;8704;52.006;4.374;2023-12-20T14:35:12;19.60;;;6.05;;
17177;SDS011;8704;52.006;4.374;2023-12-20T14:37:41;22.45;;;6.38;;
17177;SDS011;8704;52.006;4.374;2023-12-20T14:40:10;21.13;;;5.18;;
17177;SDS011;8704;52.006;4.374;2023-12-20T14:45:11;22.98;;;5.90;;
17177;SDS011;8704;52.006;4.374;2023-12-20T14:47:40;18.05;;;5.22;;
17177;SDS011;8704;52.006;4.374;2023-12-20T14:50:09;18.92;;;5.05;;
17177;SDS011;8704;52.006;4.374;2023-12-20T14:52:38;18.17;;;5.25;;
17177;SDS011;8704;52.006;4.374;2023-12-20T14:55:06;20.27;;;5.47;;
17177;SDS011;8704;52.006;4.374;2023-12-20T14:57:34;19.92;;;6.07;;
17177;SDS011;8704;52.006;4.374;2023-12-20T15:00:03;19.77;;;6.43;;
17177;SDS011;8704;52.006;4.374;2023-12-20T15:02:33;19.08;;;6.03;;
17177;SDS011;8704;52.006;4.374;2023-12-20T15:05:01;21.20;;;6.30;;